Time;durP1;ratioP1;P1;durP2;ratioP2;P2;SDS_P1;SDS_P2;PMS_P1;PMS_P2;Temp;Humidity;BMP_temperature;BMP_pressure;BME280_temperature;BME280_humidity;BME280_pressure;Samples;Min_cycle;Max_cycle;Signal;HPM_P1;HPM_P2
2021/08/26 00:01:16;;;;;;;10.75;4.47;;;15.50;99.90;;;;;;5076574;28;20020;-83
2021/08/26 00:06:25;;;;;;;11.30;5.07;;;15.50;99.90;;;;;;5036842;28;20079;-83
2021/08/26 00:08:53;;;;;;;10.70;4.70;;;15.50;99.90;;;;;;5036025;28;20033;-83
2021/08/26 00:11:22;;;;;;;11.88;5.25;;;15.40;99.90;;;;;;5035991;28;20273;-83
2021/08/26 00:13:50;;;;;;;11.90;4.78;;;15.40;99.90;;;;;;5034464;28;20030;-82
2021/08/26 00:16:26;;;;;;;10.98;5.03;;;15.30;99.90;;;;;;5034266;28;20556;-83
2021/08/26 00:18:52;;;;;;;11.45;4.68;;;15.30;99.90;;;;;;5034112;28;20048;-82
2021/08/26 00:21:18;;;;;;;10.43;5.15;;;15.30;99.90;;;;;;5035631;28;20041;-83
2021/08/26 00:23:44;;;;;;;10.57;5.15;;;15.20;99.90;;;;;;5036080;28;20040;-82
2021/08/26 00:26:10;;;;;;;10.57;4.95;;;15.20;99.90;;;;;;5049582;28;20033;-82
2021/08/26 00:28:36;;;;;;;10.93;5.22;;;15.20;99.90;;;;;;5048954;28;20108;-83
2021/08/26 00:31:03;;;;;;;12.23;4.47;;;15.10;99.90;;;;;;5055421;28;20132;-83
2021/08/26 00:33:28;;;;;;;10.45;5.25;;;15.10;99.90;;;;;;5074443;28;20016;-82
2021/08/26 00:35:54;;;;;;;10.18;4.15;;;15.20;99.90;;;;;;5073780;28;20031;-82
2021/08/26 00:38:21;;;;;;;9.63;4.85;;;15.10;99.90;;;;;;5037962;28;20021;-83
2021/08/26 00:40:47;;;;;;;11.45;4.55;;;15.10;99.90;;;;;;5035348;28;20018;-82
2021/08/26 00:43:14;;;;;;;9.38;5.18;;;15.10;99.90;;;;;;5034845;28;20024;-82
2021/08/26 00:45:42;;;;;;;11.85;4.60;;;15.00;99.90;;;;;;5042214;28;20512;-82
2021/08/26 00:48:08;;;;;;;10.57;5.40;;;15.00;99.90;;;;;;5053721;28;20516;-83
2021/08/26 00:50:34;;;;;;;11.82;5.20;;;15.00;99.90;;;;;;5055727;28;20033;-83
2021/08/26 00:53:00;;;;;;;10.38;5.13;;;14.90;99.90;;;;;;5052931;28;20028;-82
2021/08/26 00:55:25;;;;;;;10.45;4.97;;;14.90;99.90;;;;;;5055291;28;20104;-83
2021/08/26 00:57:51;;;;;;;12.00;4.97;;;14.90;99.90;;;;;;5055233;28;20401;-83
2021/08/26 01:00:17;;;;;;;11.50;5.38;;;14.90;99.90;;;;;;5054589;28;20355;-82
2021/08/26 01:03:13;;;;;;;9.82;5.28;;;14.90;99.90;;;;;;5037341;28;20029;-83
2021/08/26 01:05:59;;;;;;;13.45;4.78;;;14.80;99.90;;;;;;5035033;28;20179;-83
2021/08/26 01:08:40;;;;;;;9.55;4.68;;;14.70;99.90;;;;;;5034584;28;20021;-83
2021/08/26 01:11:06;;;;;;;10.67;4.53;;;14.70;99.90;;;;;;5052359;28;20393;-83
2021/08/26 01:13:40;;;;;;;10.30;4.95;;;14.60;99.90;;;;;;5056532;28;20048;-83
2021/08/26 01:16:07;;;;;;;9.82;4.70;;;14.50;99.90;;;;;;5054989;28;20108;-83
2021/08/26 01:18:34;;;;;;;10.73;4.90;;;14.50;99.90;;;;;;5048166;28;20118;-83
2021/08/26 01:21:00;;;;;;;11.07;5.60;;;14.50;99.90;;;;;;5033658;28;20242;-83
2021/08/26 01:23:28;;;;;;;10.95;5.32;;;14.50;99.90;;;;;;5034693;28;20405;-82
2021/08/26 01:25:54;;;;;;;9.35;4.50;;;14.40;99.90;;;;;;5044295;28;20021;-82
2021/08/26 01:28:22;;;;;;;9.48;4.40;;;14.40;99.90;;;;;;5046609;28;22229;-83
2021/08/26 01:30:48;;;;;;;10.35;5.32;;;14.40;99.90;;;;;;5054416;28;20060;-83
2021/08/26 01:33:15;;;;;;;9.77;4.53;;;14.40;99.90;;;;;;5071690;28;20036;-82
2021/08/26 01:35:40;;;;;;;9.25;4.72;;;14.30;99.90;;;;;;5074112;28;20089;-82
2021/08/26 01:38:06;;;;;;;9.90;4.50;;;14.30;99.90;;;;;;5064024;28;20116;-83
2021/08/26 01:40:40;;;;;;;9.02;4.50;;;14.30;99.90;;;;;;5049260;28;20098;-83
2021/08/26 01:43:14;;;;;;;11.52;4.30;;;14.30;99.90;;;;;;5049902;28;20079;-83
2021/08/26 01:45:43;;;;;;;8.43;4.15;;;14.30;99.90;;;;;;5033979;28;20048;-82
2021/08/26 01:48:20;;;;;;;8.98;4.38;;;14.30;99.90;;;;;;5034100;28;20037;-82
2021/08/26 01:50:49;;;;;;;8.23;4.32;;;14.20;99.90;;;;;;5033937;28;20029;-82
2021/08/26 01:53:16;;;;;;;10.10;4.40;;;14.20;99.90;;;;;;5033760;28;20512;-83
2021/08/26 01:55:42;;;;;;;8.38;4.30;;;14.20;99.90;;;;;;5051713;28;20480;-82
2021/08/26 01:58:12;;;;;;;10.50;4.97;;;14.20;99.90;;;;;;5053509;28;20064;-82
2021/08/26 02:00:38;;;;;;;9.13;4.10;;;14.20;99.90;;;;;;5052276;28;20079;-83
2021/08/26 02:03:04;;;;;;;10.35;4.20;;;14.20;99.90;;;;;;5055320;28;20036;-82
2021/08/26 02:05:29;;;;;;;9.30;4.53;;;14.20;99.90;;;;;;5052632;28;20036;-82
2021/08/26 02:07:55;;;;;;;8.35;4.00;;;14.20;99.90;;;;;;5034136;28;20035;-82
2021/08/26 02:10:21;;;;;;;9.70;4.25;;;14.30;99.90;;;;;;5035211;28;20029;-83
2021/08/26 02:12:46;;;;;;;10.02;4.05;;;14.30;99.90;;;;;;5036577;28;20026;-82
2021/08/26 02:15:12;;;;;;;9.20;4.30;;;14.30;99.90;;;;;;5045261;28;20432;-83
2021/08/26 02:17:38;;;;;;;8.23;4.18;;;14.20;99.90;;;;;;5054068;28;20033;-83
2021/08/26 02:20:05;;;;;;;9.98;3.90;;;14.30;99.90;;;;;;5055308;28;20022;-83
2021/08/26 02:22:31;;;;;;;10.88;4.70;;;14.30;99.90;;;;;;5050151;28;20113;-82
2021/08/26 02:24:57;;;;;;;10.23;4.85;;;14.20;99.90;;;;;;5038564;28;20029;-82
2021/08/26 02:27:22;;;;;;;8.48;4.55;;;14.20;99.90;;;;;;5055382;28;20028;-82
2021/08/26 02:29:48;;;;;;;9.52;4.15;;;14.20;99.90;;;;;;5033723;28;20056;-82
2021/08/26 02:32:13;;;;;;;8.98;4.30;;;14.20;99.90;;;;;;5052263;28;20099;-83
2021/08/26 02:34:39;;;;;;;8.82;4.38;;;14.20;99.90;;;;;;5074285;28;20078;-83
2021/08/26 02:37:07;;;;;;;9.55;4.30;;;14.10;99.90;;;;;;5061547;28;20118;-82
2021/08/26 02:39:34;;;;;;;12.13;4.72;;;14.10;99.90;;;;;;5049404;28;20025;-83
2021/08/26 02:42:00;;;;;;;9.60;4.65;;;14.10;99.90;;;;;;5034116;28;20058;-82
2021/08/26 02:44:25;;;;;;;9.32;4.43;;;14.10;99.90;;;;;;5032454;28;20022;-82
2021/08/26 02:46:51;;;;;;;9.82;4.45;;;14.10;99.90;;;;;;5033990;28;20036;-82
2021/08/26 02:49:17;;;;;;;8.95;4.88;;;14.00;99.90;;;;;;5046359;28;20051;-83
2021/08/26 02:51:42;;;;;;;9.20;4.38;;;14.00;99.90;;;;;;5055179;28;20484;-84
2021/08/26 02:54:08;;;;;;;10.35;4.40;;;14.00;99.90;;;;;;5068638;28;20472;-83
2021/08/26 02:56:33;;;;;;;10.48;4.50;;;14.00;99.90;;;;;;5053823;28;20043;-83
2021/08/26 02:58:59;;;;;;;11.05;4.95;;;14.00;99.90;;;;;;5069167;28;20118;-83
2021/08/26 03:01:24;;;;;;;9.80;4.55;;;14.00;99.90;;;;;;5044303;28;20025;-83
2021/08/26 03:03:50;;;;;;;8.02;4.18;;;14.10;99.90;;;;;;5050003;28;20051;-83
2021/08/26 03:06:15;;;;;;;10.27;4.15;;;14.00;99.90;;;;;;5045733;28;20049;-83
2021/08/26 03:08:41;;;;;;;7.95;4.47;;;14.00;99.90;;;;;;5034620;28;20044;-83
2021/08/26 03:11:09;;;;;;;10.40;3.95;;;14.10;99.90;;;;;;5037476;28;20040;-83
2021/08/26 03:13:34;;;;;;;8.77;4.47;;;14.00;99.90;;;;;;5071222;28;20377;-83
2021/08/26 03:16:00;;;;;;;9.88;4.43;;;14.00;99.90;;;;;;5035700;28;20124;-83
2021/08/26 03:18:25;;;;;;;9.15;4.10;;;14.00;99.90;;;;;;5048399;28;20664;-83
2021/08/26 03:20:51;;;;;;;8.52;4.22;;;14.00;99.90;;;;;;5057074;28;20028;-83
2021/08/26 03:23:17;;;;;;;9.38;4.20;;;14.00;99.90;;;;;;5075942;28;20056;-82
2021/08/26 03:25:44;;;;;;;8.10;4.00;;;14.00;99.90;;;;;;5080176;28;20038;-83
2021/08/26 03:28:10;;;;;;;12.55;4.78;;;14.00;99.90;;;;;;5075902;28;20101;-83
2021/08/26 03:30:36;;;;;;;9.65;4.55;;;14.10;99.90;;;;;;5086190;28;20473;-83
2021/08/26 03:33:02;;;;;;;8.18;4.38;;;14.10;99.90;;;;;;5056532;28;20029;-83
2021/08/26 03:35:27;;;;;;;9.65;4.13;;;14.10;99.90;;;;;;5056465;28;20025;-83
2021/08/26 03:37:53;;;;;;;10.23;4.30;;;14.10;99.90;;;;;;5054949;28;20025;-83
2021/08/26 03:40:18;;;;;;;10.02;4.68;;;14.10;99.90;;;;;;5056604;28;20083;-82
2021/08/26 03:42:44;;;;;;;10.80;4.60;;;14.10;99.90;;;;;;5056324;28;20032;-82
2021/08/26 03:45:11;;;;;;;9.23;4.75;;;14.10;99.90;;;;;;5056798;28;20029;-83
2021/08/26 03:47:36;;;;;;;10.50;4.45;;;14.20;99.90;;;;;;5055562;28;20056;-83
2021/08/26 03:50:02;;;;;;;8.95;4.57;;;14.10;99.90;;;;;;5046423;28;20044;-82
2021/08/26 03:52:28;;;;;;;8.35;4.18;;;14.20;99.90;;;;;;5076203;28;20028;-83
2021/08/26 03:54:53;;;;;;;8.40;4.40;;;14.30;99.90;;;;;;5064938;28;20037;-83
2021/08/26 03:57:19;;;;;;;10.02;4.78;;;14.30;99.90;;;;;;5060727;28;20017;-83
2021/08/26 03:59:44;;;;;;;10.82;4.80;;;14.20;99.90;;;;;;5053909;28;20025;-83
2021/08/26 04:02:10;;;;;;;10.75;5.13;;;14.30;99.90;;;;;;5056550;28;20021;-83
2021/08/26 04:04:36;;;;;;;9.85;5.00;;;14.30;99.90;;;;;;5082612;28;20489;-83
2021/08/26 04:07:01;;;;;;;11.85;4.72;;;14.30;99.90;;;;;;5074229;28;20033;-83
2021/08/26 04:09:27;;;;;;;9.82;4.82;;;14.30;99.90;;;;;;5076090;28;20117;-83
2021/08/26 04:11:53;;;;;;;10.32;4.75;;;14.30;99.90;;;;;;5076638;28;20513;-83
2021/08/26 04:14:18;;;;;;;11.05;4.95;;;14.30;99.90;;;;;;5058434;28;20043;-83
2021/08/26 04:16:44;;;;;;;9.07;4.32;;;14.30;99.90;;;;;;5058150;28;20068;-83
2021/08/26 04:19:09;;;;;;;10.57;4.43;;;14.30;99.90;;;;;;5037504;28;20037;-83
2021/08/26 04:21:35;;;;;;;9.48;4.57;;;14.40;99.90;;;;;;5055719;28;20032;-83
2021/08/26 04:24:00;;;;;;;8.68;4.20;;;14.40;99.90;;;;;;5055301;28;20032;-82
2021/08/26 04:26:26;;;;;;;9.65;5.03;;;14.40;99.90;;;;;;5070714;28;20024;-83
2021/08/26 04:28:51;;;;;;;9.05;4.07;;;14.40;99.90;;;;;;5074973;28;20040;-83
2021/08/26 04:31:17;;;;;;;8.38;4.28;;;14.40;99.90;;;;;;5075014;28;20512;-83
2021/08/26 04:33:43;;;;;;;8.75;4.30;;;14.40;99.90;;;;;;5071018;28;20025;-83
2021/08/26 04:36:08;;;;;;;10.10;4.60;;;14.40;99.90;;;;;;5055055;28;20366;-82
2021/08/26 04:38:34;;;;;;;9.20;4.47;;;14.40;99.90;;;;;;5054080;28;20433;-83
2021/08/26 04:40:59;;;;;;;9.80;4.05;;;14.40;99.90;;;;;;5037090;28;20029;-83
2021/08/26 04:43:25;;;;;;;8.60;4.50;;;14.40;99.90;;;;;;5037243;28;20093;-83
2021/08/26 04:45:51;;;;;;;6.70;3.78;;;14.40;99.90;;;;;;5053708;28;20037;-83
2021/08/26 04:48:16;;;;;;;8.38;3.70;;;14.40;99.90;;;;;;5036367;28;20449;-83
2021/08/26 04:50:42;;;;;;;7.47;3.70;;;14.40;99.90;;;;;;5054646;28;20033;-83
2021/08/26 04:53:07;;;;;;;9.80;4.60;;;14.40;99.90;;;;;;5036272;28;20029;-83
2021/08/26 04:55:33;;;;;;;8.05;4.15;;;14.40;99.90;;;;;;5036735;28;20033;-83
2021/08/26 04:57:59;;;;;;;9.60;3.78;;;14.30;99.90;;;;;;5054496;28;20060;-83
2021/08/26 05:00:24;;;;;;;10.43;4.82;;;14.30;99.90;;;;;;5055250;28;20033;-82
2021/08/26 05:02:50;;;;;;;9.32;4.32;;;14.30;99.90;;;;;;5059251;28;20021;-83
2021/08/26 05:05:15;;;;;;;7.65;3.97;;;14.30;99.90;;;;;;5077864;28;20024;-83
2021/08/26 05:07:41;;;;;;;8.23;4.35;;;14.30;99.90;;;;;;5054211;28;20032;-83
2021/08/26 05:10:08;;;;;;;10.20;4.20;;;14.40;99.90;;;;;;5054872;28;20028;-83
2021/08/26 05:12:33;;;;;;;12.05;4.30;;;14.40;99.90;;;;;;5036562;28;20028;-83
2021/08/26 05:15:00;;;;;;;9.60;4.50;;;14.40;99.90;;;;;;5036265;28;20039;-83
2021/08/26 05:17:25;;;;;;;8.05;4.07;;;14.40;99.90;;;;;;5054325;28;20040;-83
2021/08/26 05:19:51;;;;;;;7.63;3.78;;;14.40;99.90;;;;;;5099211;22;20052;-87
2021/08/26 05:22:17;;;;;;;7.75;4.40;;;14.40;99.90;;;;;;5063722;28;20031;-87
2021/08/26 05:24:42;;;;;;;8.75;4.40;;;14.50;99.90;;;;;;5068624;28;20070;-87
2021/08/26 05:27:08;;;;;;;10.45;4.32;;;14.50;99.90;;;;;;5054995;28;20104;-86
2021/08/26 05:29:34;;;;;;;7.80;3.90;;;14.50;99.90;;;;;;5053569;28;20045;-87
2021/08/26 05:32:00;;;;;;;9.45;4.57;;;14.50;99.90;;;;;;5046664;28;20065;-86
2021/08/26 05:34:26;;;;;;;8.05;3.95;;;14.50;99.90;;;;;;5030652;28;20029;-86
2021/08/26 05:36:51;;;;;;;9.27;4.20;;;14.50;99.90;;;;;;5035269;28;20604;-87
2021/08/26 05:39:17;;;;;;;10.75;4.65;;;14.60;99.90;;;;;;5047789;28;20021;-86
2021/08/26 05:41:46;;;;;;;9.00;4.57;;;14.60;99.90;;;;;;5049461;28;20036;-87
2021/08/26 05:44:13;;;;;;;9.43;4.78;;;14.70;99.90;;;;;;5050589;28;20020;-87
2021/08/26 05:46:39;;;;;;;12.40;4.88;;;14.60;99.90;;;;;;5049414;28;20081;-87
2021/08/26 05:49:05;;;;;;;9.55;4.95;;;14.70;99.90;;;;;;5049824;28;20051;-87
2021/08/26 05:51:30;;;;;;;11.10;5.28;;;14.80;99.90;;;;;;5049223;28;20089;-87
2021/08/26 05:53:56;;;;;;;9.57;4.53;;;14.80;99.90;;;;;;5049692;28;20033;-87
2021/08/26 05:56:21;;;;;;;12.13;5.13;;;14.80;99.90;;;;;;5048303;28;20053;-86
2021/08/26 05:58:47;;;;;;;10.05;5.30;;;14.80;99.90;;;;;;5028701;28;20075;-87
2021/08/26 06:01:13;;;;;;;7.95;4.72;;;14.80;99.90;;;;;;5045236;28;20048;-87
2021/08/26 06:03:38;;;;;;;12.23;4.75;;;14.90;99.90;;;;;;5055903;28;20029;-86
2021/08/26 06:06:04;;;;;;;9.00;4.00;;;14.90;99.90;;;;;;5053689;28;20033;-87
2021/08/26 06:08:30;;;;;;;8.10;4.38;;;14.80;99.90;;;;;;5066841;28;20096;-87
2021/08/26 06:10:57;;;;;;;12.57;4.45;;;14.90;99.90;;;;;;5053015;28;20032;-87
2021/08/26 06:13:22;;;;;;;10.90;5.13;;;14.90;99.90;;;;;;5068433;28;20078;-87
2021/08/26 06:15:48;;;;;;;12.68;5.13;;;14.90;99.90;;;;;;5066725;28;20033;-86
2021/08/26 06:18:15;;;;;;;12.07;5.03;;;14.90;99.90;;;;;;5050445;28;20051;-87
2021/08/26 06:20:42;;;;;;;10.70;5.32;;;14.90;99.90;;;;;;5069106;28;20025;-85
2021/08/26 06:23:07;;;;;;;11.50;6.07;;;14.90;99.90;;;;;;5061377;28;20478;-86
2021/08/26 06:25:33;;;;;;;12.43;5.35;;;14.90;99.90;;;;;;5029803;28;20025;-87
2021/08/26 06:28:00;;;;;;;10.02;5.07;;;14.90;99.90;;;;;;5048406;28;20029;-87
2021/08/26 06:30:26;;;;;;;14.88;5.40;;;15.00;99.90;;;;;;5033028;28;20147;-87
2021/08/26 06:32:52;;;;;;;12.18;5.93;;;15.00;99.90;;;;;;5049467;28;20048;-87
2021/08/26 06:35:18;;;;;;;9.38;5.18;;;15.00;99.90;;;;;;5052702;28;20071;-86
2021/08/26 06:37:44;;;;;;;10.68;5.13;;;14.80;99.90;;;;;;5065554;28;20033;-86
2021/08/26 06:40:10;;;;;;;10.93;5.20;;;15.00;99.90;;;;;;5066379;28;20028;-88
2021/08/26 06:42:36;;;;;;;14.60;6.30;;;15.00;99.90;;;;;;5050148;28;20021;-87
2021/08/26 06:45:02;;;;;;;11.23;5.65;;;15.00;99.90;;;;;;5053979;28;20036;-87
2021/08/26 06:47:27;;;;;;;10.55;5.80;;;14.90;99.90;;;;;;5053952;28;20025;-88
2021/08/26 06:49:53;;;;;;;12.10;5.70;;;14.90;99.90;;;;;;5039233;28;20474;-88
2021/08/26 06:52:19;;;;;;;11.70;5.60;;;14.90;99.90;;;;;;5035787;28;20026;-87
2021/08/26 06:54:44;;;;;;;10.38;5.38;;;14.90;99.90;;;;;;5052374;28;20044;-87
2021/08/26 06:57:10;;;;;;;10.20;5.30;;;14.90;99.90;;;;;;5057456;28;20025;-87
2021/08/26 06:59:36;;;;;;;12.18;5.32;;;14.90;99.90;;;;;;5072805;28;20032;-88
2021/08/26 07:02:02;;;;;;;10.50;5.93;;;14.90;99.90;;;;;;5072875;28;20044;-88
2021/08/26 07:04:27;;;;;;;13.65;6.53;;;14.90;99.90;;;;;;5072221;28;20100;-88
2021/08/26 07:06:54;;;;;;;16.13;6.00;;;14.90;99.90;;;;;;5052850;28;20032;-88
2021/08/26 07:09:21;;;;;;;11.82;6.55;;;15.00;99.90;;;;;;5072869;28;20025;-87
2021/08/26 07:11:48;;;;;;;12.57;6.25;;;14.90;99.90;;;;;;5054575;28;20120;-85
2021/08/26 07:14:13;;;;;;;12.73;6.13;;;14.90;99.90;;;;;;5073000;28;20025;-84
2021/08/26 07:16:39;;;;;;;13.15;6.50;;;14.90;99.90;;;;;;5072107;28;20092;-85
2021/08/26 07:19:05;;;;;;;11.30;6.97;;;14.90;99.90;;;;;;5071944;28;20097;-85
2021/08/26 07:21:30;;;;;;;12.50;6.40;;;15.00;99.90;;;;;;5072743;28;20040;-85
2021/08/26 07:23:56;;;;;;;12.40;6.50;;;15.00;99.90;;;;;;5053240;28;20057;-87
2021/08/26 07:26:22;;;;;;;12.70;6.88;;;15.00;99.90;;;;;;5034582;28;20037;-87
2021/08/26 07:28:47;;;;;;;13.02;6.53;;;15.00;99.90;;;;;;5053419;28;20025;-87
2021/08/26 07:31:14;;;;;;;13.90;6.70;;;15.00;99.90;;;;;;5072767;28;20060;-88
2021/08/26 07:33:39;;;;;;;13.38;6.28;;;15.00;99.90;;;;;;5052007;28;20055;-87
2021/08/26 07:36:05;;;;;;;13.35;6.30;;;15.10;99.90;;;;;;5034627;28;20124;-89
2021/08/26 07:38:31;;;;;;;14.25;7.15;;;15.20;99.90;;;;;;5035655;28;20029;-88
2021/08/26 07:40:57;;;;;;;13.88;7.55;;;15.20;99.90;;;;;;5057797;28;20017;-87
2021/08/26 07:43:25;;;;;;;12.48;7.47;;;15.30;99.90;;;;;;5071522;28;20057;-87
2021/08/26 07:45:54;;;;;;;12.23;7.07;;;15.30;99.90;;;;;;5071581;28;20093;-88
2021/08/26 07:48:20;;;;;;;15.23;7.50;;;15.40;99.90;;;;;;5072356;28;20103;-88
2021/08/26 07:50:47;;;;;;;13.70;6.78;;;15.40;99.90;;;;;;5064814;28;20033;-87
2021/08/26 07:53:14;;;;;;;11.85;6.43;;;15.40;99.90;;;;;;5055078;28;20539;-87
2021/08/26 07:55:39;;;;;;;13.93;6.88;;;15.30;99.90;;;;;;5055143;28;20029;-87
2021/08/26 07:58:05;;;;;;;11.60;6.22;;;15.40;99.90;;;;;;5054759;28;20109;-87
2021/08/26 08:00:31;;;;;;;12.55;6.40;;;15.70;99.90;;;;;;5070757;28;20024;-87
2021/08/26 08:02:56;;;;;;;11.85;6.13;;;15.60;99.90;;;;;;5054624;28;20024;-87
2021/08/26 08:05:22;;;;;;;12.55;6.32;;;15.60;99.90;;;;;;5066311;28;20048;-87
2021/08/26 08:07:47;;;;;;;12.20;7.07;;;15.60;99.90;;;;;;5053724;28;20040;-88
2021/08/26 08:10:14;;;;;;;11.45;6.35;;;15.70;99.90;;;;;;5051425;28;20033;-88
2021/08/26 08:12:40;;;;;;;11.93;6.80;;;15.70;99.90;;;;;;5069755;28;20029;-87
2021/08/26 08:15:07;;;;;;;11.43;6.43;;;15.80;99.90;;;;;;5047533;28;20040;-88
2021/08/26 08:17:32;;;;;;;19.98;7.38;;;15.70;99.90;;;;;;5033954;28;20040;-87
2021/08/26 08:19:58;;;;;;;12.05;6.70;;;15.70;99.90;;;;;;5033721;28;20034;-87
2021/08/26 08:22:23;;;;;;;10.80;6.68;;;15.80;99.90;;;;;;5032420;28;20037;-87
2021/08/26 08:24:49;;;;;;;13.57;6.55;;;15.70;99.90;;;;;;5056370;28;20064;-87
2021/08/26 08:27:15;;;;;;;12.63;6.18;;;15.70;99.90;;;;;;5068966;28;20409;-87
2021/08/26 08:29:41;;;;;;;13.20;7.07;;;15.70;99.90;;;;;;5048530;28;20026;-87
2021/08/26 08:32:06;;;;;;;11.52;6.28;;;15.70;99.90;;;;;;5047732;28;20122;-87
2021/08/26 08:34:32;;;;;;;14.52;6.63;;;15.70;99.90;;;;;;5057650;28;20036;-87
2021/08/26 08:36:58;;;;;;;12.90;6.82;;;15.80;99.90;;;;;;5056109;28;20032;-87
2021/08/26 08:39:24;;;;;;;14.65;7.03;;;15.80;99.90;;;;;;5055156;28;20021;-87
2021/08/26 08:41:50;;;;;;;12.95;7.32;;;15.80;99.90;;;;;;5054765;28;20108;-87
2021/08/26 08:44:15;;;;;;;13.02;7.65;;;15.80;99.90;;;;;;5039308;28;20099;-86
2021/08/26 08:46:46;;;;;;;14.65;7.80;;;15.80;99.90;;;;;;5044422;28;20030;-87
2021/08/26 08:49:12;;;;;;;13.63;7.85;;;15.70;99.90;;;;;;5030627;28;20059;-86
2021/08/26 08:51:39;;;;;;;12.63;8.07;;;15.80;99.90;;;;;;5041090;28;20037;-86
2021/08/26 08:54:06;;;;;;;15.20;8.13;;;15.70;99.90;;;;;;5030714;28;20033;-86
2021/08/26 08:56:31;;;;;;;15.25;8.10;;;15.60;99.90;;;;;;5049179;28;20029;-89
2021/08/26 08:58:58;;;;;;;13.70;8.20;;;15.70;99.90;;;;;;5057804;28;20032;-85
2021/08/26 09:01:24;;;;;;;15.20;8.98;;;15.80;99.90;;;;;;5068915;28;20041;-86
2021/08/26 09:03:50;;;;;;;14.48;8.05;;;15.70;99.90;;;;;;5068456;28;20025;-86
2021/08/26 09:06:16;;;;;;;13.15;7.95;;;15.70;99.90;;;;;;5057506;28;20039;-87
2021/08/26 09:08:41;;;;;;;14.55;8.40;;;15.60;99.90;;;;;;5068475;28;20446;-87
2021/08/26 09:11:11;;;;;;;13.65;8.15;;;15.50;99.90;;;;;;5068720;28;20033;-87
2021/08/26 09:13:38;;;;;;;14.57;8.88;;;15.60;99.90;;;;;;5051324;28;20040;-87
2021/08/26 09:16:04;;;;;;;15.23;8.35;;;15.60;99.90;;;;;;5068045;28;20029;-86
2021/08/26 09:18:30;;;;;;;13.30;8.20;;;15.60;99.90;;;;;;5068438;28;20032;-87
2021/08/26 09:21:09;;;;;;;14.18;8.98;;;15.60;99.90;;;;;;5069851;28;20025;-87
2021/08/26 09:23:51;;;;;;;15.65;8.85;;;15.50;99.90;;;;;;5064074;28;20017;-86
2021/08/26 09:26:22;;;;;;;15.93;8.95;;;15.50;99.90;;;;;;5065414;28;20029;-86
2021/08/26 09:28:50;;;;;;;15.88;9.38;;;15.40;99.90;;;;;;5069699;28;20068;-86
2021/08/26 09:31:18;;;;;;;19.05;11.32;;;15.50;99.90;;;;;;5067589;28;20065;-87
2021/08/26 09:33:59;;;;;;;16.27;10.45;;;15.50;99.90;;;;;;5049805;28;20029;-85
2021/08/26 09:36:37;;;;;;;17.40;10.77;;;15.50;99.90;;;;;;5032108;28;20029;-86
2021/08/26 09:39:11;;;;;;;19.10;11.52;;;15.60;99.90;;;;;;5049156;28;20055;-86
2021/08/26 09:41:38;;;;;;;16.35;9.70;;;15.70;99.90;;;;;;5050583;28;20083;-86
2021/08/26 09:44:09;;;;;;;13.75;9.50;;;15.70;99.90;;;;;;5032758;28;20044;-86
2021/08/26 09:46:35;;;;;;;14.60;9.73;;;15.60;99.90;;;;;;5049435;28;20026;-87
2021/08/26 09:49:06;;;;;;;15.05;9.40;;;15.60;99.90;;;;;;5051311;28;20045;-86
2021/08/26 09:51:32;;;;;;;16.70;9.80;;;15.50;99.90;;;;;;5048854;28;20069;-86
2021/08/26 09:53:59;;;;;;;13.95;9.32;;;15.40;99.90;;;;;;5048721;28;20036;-87
2021/08/26 09:56:24;;;;;;;13.95;9.82;;;15.50;99.90;;;;;;5048818;28;20208;-86
2021/08/26 09:58:54;;;;;;;10.30;7.10;;;15.50;99.90;;;;;;5052091;28;20044;-87
2021/08/26 10:01:21;;;;;;;12.13;7.35;;;15.30;99.90;;;;;;5051572;28;20058;-86
2021/08/26 10:03:48;;;;;;;12.20;7.18;;;15.20;99.90;;;;;;5050737;28;20025;-86
2021/08/26 10:06:15;;;;;;;9.65;6.90;;;15.10;99.90;;;;;;5037036;28;20548;-87
2021/08/26 10:08:43;;;;;;;10.60;5.85;;;15.20;99.90;;;;;;5048517;28;20053;-87
2021/08/26 10:11:10;;;;;;;11.52;6.60;;;15.20;99.90;;;;;;5046898;28;20033;-87
2021/08/26 10:13:37;;;;;;;8.07;4.70;;;15.20;99.90;;;;;;5053225;28;20489;-86
2021/08/26 10:16:03;;;;;;;5.93;3.80;;;15.10;99.90;;;;;;5048296;28;20034;-87
2021/08/26 10:18:29;;;;;;;6.90;3.72;;;15.10;99.90;;;;;;5045522;28;20502;-87
2021/08/26 10:20:59;;;;;;;5.47;3.20;;;15.20;99.90;;;;;;5043148;28;20032;-86
2021/08/26 10:23:26;;;;;;;4.72;2.80;;;15.20;99.90;;;;;;5044613;28;20172;-88
2021/08/26 10:25:54;;;;;;;5.15;2.85;;;15.20;99.90;;;;;;5054004;28;20096;-87
2021/08/26 10:28:21;;;;;;;6.18;2.60;;;15.00;99.90;;;;;;5055275;28;20033;-89
2021/08/26 10:30:46;;;;;;;3.47;2.05;;;15.00;99.90;;;;;;5045145;28;20060;-88
2021/08/26 10:33:23;;;;;;;4.78;2.50;;;15.00;99.90;;;;;;5046134;28;20029;-89
2021/08/26 10:35:53;;;;;;;4.13;2.00;;;14.90;99.90;;;;;;5046654;28;20025;-88
2021/08/26 10:38:25;;;;;;;3.65;1.75;;;14.80;99.90;;;;;;5046247;28;20022;-88
2021/08/26 10:40:51;;;;;;;4.25;2.17;;;14.80;99.90;;;;;;5029345;28;20045;-87
2021/08/26 10:43:39;;;;;;;3.70;1.90;;;14.80;99.90;;;;;;5028650;28;20026;-88
2021/08/26 10:46:08;;;;;;;4.53;3.08;;;15.10;99.90;;;;;;5047083;28;20093;-88
2021/08/26 10:48:34;;;;;;;4.57;2.50;;;15.30;99.90;;;;;;5045877;28;20029;-88
2021/08/26 10:51:17;;;;;;;5.03;2.15;;;15.50;99.90;;;;;;5042163;28;20177;-88
2021/08/26 10:53:48;;;;;;;4.22;1.90;;;15.60;99.90;;;;;;5045117;28;20038;-88
2021/08/26 10:56:29;;;;;;;4.13;2.25;;;15.90;99.90;;;;;;5043914;28;20026;-87
2021/08/26 10:58:59;;;;;;;4.53;2.07;;;16.00;99.90;;;;;;5045609;28;20021;-88
2021/08/26 11:01:28;;;;;;;5.88;2.47;;;16.20;99.90;;;;;;5045090;28;20264;-89
2021/08/26 11:04:04;;;;;;;3.90;2.03;;;16.10;99.90;;;;;;5045873;28;20089;-88
2021/08/26 11:06:30;;;;;;;4.70;2.10;;;16.10;99.90;;;;;;5040398;28;20029;-87
2021/08/26 11:09:22;;;;;;;4.78;2.65;;;16.20;99.90;;;;;;5045375;28;20033;-87
2021/08/26 11:11:52;;;;;;;4.82;2.78;;;16.30;99.90;;;;;;5029454;28;20026;-88
2021/08/26 11:14:18;;;;;;;5.35;2.42;;;16.30;99.90;;;;;;5031681;28;20025;-88
2021/08/26 11:16:46;;;;;;;5.93;2.70;;;16.60;99.90;;;;;;5039442;28;20030;-88
2021/08/26 11:19:11;;;;;;;5.50;2.55;;;17.00;99.90;;;;;;5048941;23;20577;-83
2021/08/26 11:24:19;;;;;;;5.05;2.78;;;17.30;99.90;;;;;;5016290;28;20030;-83
2021/08/26 11:26:49;;;;;;;6.60;3.15;;;17.50;99.90;;;;;;5032177;28;20025;-83
2021/08/26 11:29:17;;;;;;;7.20;3.17;;;17.40;99.90;;;;;;5038719;28;20033;-82
2021/08/26 11:32:03;;;;;;;5.28;2.97;;;17.40;99.90;;;;;;5036166;28;20441;-83
2021/08/26 11:34:32;;;;;;;6.70;2.60;;;17.70;99.90;;;;;;5026983;28;20021;-83
2021/08/26 11:37:06;;;;;;;7.57;3.10;;;17.80;99.90;;;;;;5039214;28;20025;-81
2021/08/26 11:39:35;;;;;;;8.27;3.28;;;17.90;99.90;;;;;;5040222;28;20049;-82
2021/08/26 11:42:19;;;;;;;7.43;3.40;;;17.90;99.90;;;;;;5039043;28;20127;-82
2021/08/26 11:45:06;;;;;;;8.18;4.45;;;18.00;99.90;;;;;;5019379;28;20029;-83
2021/08/26 11:47:33;;;;;;;6.53;3.67;;;17.80;99.90;;;;;;5034423;28;20030;-83
2021/08/26 11:50:39;;;;;;;7.78;3.60;;;17.70;99.90;;;;;;5019600;28;20030;-83
2021/08/26 11:53:12;;;;;;;7.60;4.18;;;17.80;99.90;;;;;;5008211;28;20449;-83
2021/08/26 11:55:50;;;;;;;6.97;3.60;;;17.60;99.90;;;;;;5038548;28;20044;-83
2021/08/26 11:58:16;;;;;;;7.80;4.38;;;17.60;99.90;;;;;;5036318;28;20390;-84
2021/08/26 12:00:44;;;;;;;9.98;4.53;;;17.50;99.90;;;;;;5018528;28;20459;-82
2021/08/26 12:03:10;;;;;;;6.57;3.88;;;17.40;99.90;;;;;;5017987;28;20490;-83
2021/08/26 12:05:39;;;;;;;9.18;4.18;;;17.20;99.90;;;;;;5014404;28;20046;-82
2021/08/26 12:08:06;;;;;;;10.70;4.20;;;17.10;99.90;;;;;;5018615;28;20053;-83
2021/08/26 12:10:35;;;;;;;7.22;3.88;;;17.10;99.90;;;;;;5036329;28;20044;-82
2021/08/26 12:13:26;;;;;;;9.95;4.38;;;17.00;99.90;;;;;;5037204;28;20514;-83
2021/08/26 12:15:54;;;;;;;9.10;4.47;;;16.90;99.90;;;;;;5031759;28;20026;-82
2021/08/26 12:18:27;;;;;;;9.68;4.57;;;17.00;99.90;;;;;;5017226;28;20030;-83
2021/08/26 12:20:55;;;;;;;8.68;3.92;;;16.90;99.90;;;;;;5017767;28;20057;-82
2021/08/26 12:23:28;;;;;;;8.13;4.25;;;16.90;99.90;;;;;;5016695;28;20109;-83
2021/08/26 12:26:12;;;;;;;9.30;4.57;;;16.90;99.90;;;;;;5027754;28;20068;-82
2021/08/26 12:28:40;;;;;;;9.52;4.65;;;17.00;99.90;;;;;;5034581;28;20120;-83
2021/08/26 12:31:14;;;;;;;7.45;3.97;;;17.20;99.90;;;;;;5036638;28;20025;-83
2021/08/26 12:33:57;;;;;;;9.40;4.18;;;17.30;99.90;;;;;;5020184;28;20440;-82
2021/08/26 12:36:23;;;;;;;6.55;3.92;;;17.50;99.90;;;;;;5015824;28;20088;-82
2021/08/26 12:38:49;;;;;;;8.25;4.07;;;17.60;99.90;;;;;;5013980;28;20392;-82
2021/08/26 12:41:18;;;;;;;7.80;3.95;;;18.10;99.90;;;;;;5026963;28;20479;-82
2021/08/26 12:43:45;;;;;;;7.68;4.07;;;18.10;99.90;;;;;;5031305;28;20029;-82
2021/08/26 12:46:19;;;;;;;8.18;4.00;;;18.00;99.90;;;;;;5034977;28;20109;-82
2021/08/26 12:48:46;;;;;;;10.85;4.38;;;18.00;99.90;;;;;;5037166;28;20029;-82